Time;durP1;ratioP1;P1;durP2;ratioP2;P2;SDS_P1;SDS_P2;PMS_P1;PMS_P2;Temp;Humidity;BMP_temperature;BMP_pressure;BME280_temperature;BME280_humidity;BME280_pressure;Samples;Min_cycle;Max_cycle;Signal;HPM_P1;HPM_P2
2022/07/13 00:00:12;;;;;;;;;;;;;;;16.10;56.61;100945.13;4958274;28;1906;-59
2022/07/13 00:02:38;;;;;;;;;;;;;;;16.05;56.93;100941.28;4958920;29;1161;-59
2022/07/13 00:05:03;;;;;;;;;;;;;;;16.05;56.47;100941.28;4958935;29;1011;-59
2022/07/13 00:07:29;;;;;;;;;;;;;;;15.99;56.84;100936.03;4959033;29;1284;-58
2022/07/13 00:09:54;;;;;;;;;;;;;;;16.79;57.45;100941.31;4959277;28;868;-58
2022/07/13 00:12:20;;;;;;;;;;;;;;;17.08;57.51;100933.41;4958674;28;1121;-59
2022/07/13 00:14:45;;;;;;;;;;;;;;;16.60;58.13;100939.03;4964806;28;1165;-59
2022/07/13 00:17:10;;;;;;;;;;;;;;;16.46;57.89;100937.06;4959006;29;968;-59
2022/07/13 00:19:36;;;;;;;;;;;;;;;16.34;57.71;100935.38;4958639;29;1914;-59
2022/07/13 00:22:01;;;;;;;;;;;;;;;16.29;57.35;100938.09;4958331;29;864;-58
2022/07/13 00:24:27;;;;;;;;;;;;;;;16.25;57.40;100937.78;4958561;29;1204;-59
2022/07/13 00:26:52;;;;;;;;;;;;;;;16.26;56.80;100938.63;4958367;29;991;-58
2022/07/13 00:29:17;;;;;;;;;;;;;;;16.16;56.88;100941.31;4958496;29;1133;-62
2022/07/13 00:31:46;;;;;;;;;;;;;;;16.16;56.96;100946.81;4956441;28;1062;-61
2022/07/13 00:34:11;;;;;;;;;;;;;;;16.04;56.85;100942.34;4959779;28;927;-61
2022/07/13 00:36:38;;;;;;;;;;;;;;;16.07;57.09;100946.50;4945727;28;1246;-61
2022/07/13 00:39:03;;;;;;;;;;;;;;;17.39;57.47;100949.06;4960372;28;991;-61
2022/07/13 00:41:28;;;;;;;;;;;;;;;16.87;58.07;100939.94;4958601;29;1906;-61
2022/07/13 00:44:04;;;;;;;;;;;;;;;16.54;57.94;100939.31;4943176;29;1138;-61
2022/07/13 00:46:30;;;;;;;;;;;;;;;16.42;57.70;100945.00;4958441;28;837;-60
2022/07/13 00:48:55;;;;;;;;;;;;;;;16.32;57.39;100948.53;4935475;28;1537;-59
2022/07/13 00:51:21;;;;;;;;;;;;;;;16.30;57.15;100939.75;4960270;28;978;-61
2022/07/13 00:53:46;;;;;;;;;;;;;;;16.23;57.35;100947.41;4930367;29;1106;-58
2022/07/13 00:56:12;;;;;;;;;;;;;;;16.17;57.06;100946.56;4956977;29;1102;-59
2022/07/13 00:58:37;;;;;;;;;;;;;;;16.15;56.78;100945.19;4960959;28;877;-60
2022/07/13 01:01:03;;;;;;;;;;;;;;;16.11;56.83;100949.53;4946415;28;1906;-60
2022/07/13 01:03:28;;;;;;;;;;;;;;;16.01;56.77;100939.34;4941422;29;857;-60
2022/07/13 01:05:54;;;;;;;;;;;;;;;16.70;57.60;100943.72;4943327;28;1412;-58
2022/07/13 01:08:20;;;;;;;;;;;;;;;17.09;57.96;100940.53;4957940;29;1132;-58
2022/07/13 01:10:45;;;;;;;;;;;;;;;16.67;58.31;100938.78;4957841;28;898;-58
2022/07/13 01:13:11;;;;;;;;;;;;;;;16.51;57.74;100948.91;4940627;29;1545;-58
2022/07/13 01:15:36;;;;;;;;;;;;;;;16.40;57.76;100950.78;4946224;29;1019;-58
2022/07/13 01:18:02;;;;;;;;;;;;;;;16.31;57.41;100935.91;4957979;29;1086;-61
2022/07/13 01:20:27;;;;;;;;;;;;;;;16.33;57.02;100941.97;4957977;29;1910;-61
2022/07/13 01:22:53;;;;;;;;;;;;;;;16.22;57.03;100945.75;4957665;29;1154;-61
2022/07/13 01:25:19;;;;;;;;;;;;;;;16.19;56.83;100943.56;4957976;29;1038;-61
2022/07/13 01:27:45;;;;;;;;;;;;;;;16.17;56.75;100951.22;4957632;29;1212;-61
2022/07/13 01:30:11;;;;;;;;;;;;;;;17.21;57.57;100939.47;4959056;28;1007;-60
2022/07/13 01:32:42;;;;;;;;;;;;;;;16.95;58.28;100933.13;4941102;29;1051;-61
2022/07/13 01:35:08;;;;;;;;;;;;;;;16.63;58.36;100934.94;4960616;28;917;-62
2022/07/13 01:37:33;;;;;;;;;;;;;;;16.49;57.97;100944.78;4957914;29;1220;-61
2022/07/13 01:39:59;;;;;;;;;;;;;;;16.42;57.37;100942.25;4957187;29;1975;-62
2022/07/13 01:42:25;;;;;;;;;;;;;;;16.35;57.46;100950.75;4957624;29;1054;-62
2022/07/13 01:44:50;;;;;;;;;;;;;;;16.30;57.32;100952.63;4940954;29;1198;-61
2022/07/13 01:47:15;;;;;;;;;;;;;;;16.24;57.14;100949.88;4957608;29;995;-58
2022/07/13 01:49:41;;;;;;;;;;;;;;;16.20;57.10;100956.16;4957306;29;1074;-58
2022/07/13 01:52:06;;;;;;;;;;;;;;;16.16;56.85;100955.03;4957524;29;978;-58
2022/07/13 01:54:32;;;;;;;;;;;;;;;16.11;56.89;100949.53;4956060;29;1216;-58
2022/07/13 01:56:57;;;;;;;;;;;;;;;16.07;56.62;100951.97;4957569;29;1007;-58
2022/07/13 01:59:23;;;;;;;;;;;;;;;16.07;56.76;100947.34;4940260;29;1299;-58
2022/07/13 02:01:48;;;;;;;;;;;;;;;16.63;57.73;100951.41;4942324;29;1976;-58
2022/07/13 02:04:14;;;;;;;;;;;;;;;17.22;57.56;100947.44;4943260;28;1280;-58
2022/07/13 02:06:40;;;;;;;;;;;;;;;16.69;58.08;100938.50;4957600;29;1109;-58
2022/07/13 02:09:05;;;;;;;;;;;;;;;16.49;57.71;100944.78;4957721;28;1205;-58
2022/07/13 02:11:31;;;;;;;;;;;;;;;16.37;57.69;100940.34;4963451;28;1053;-57
2022/07/13 02:13:57;;;;;;;;;;;;;;;16.34;57.21;100949.13;4957408;29;1077;-58
2022/07/13 02:16:22;;;;;;;;;;;;;;;16.23;57.40;100953.72;4957544;29;975;-58
2022/07/13 02:18:49;;;;;;;;;;;;;;;16.18;57.28;100953.69;4944665;29;1181;-57
2022/07/13 02:21:14;;;;;;;;;;;;;;;16.13;57.02;100925.41;4957188;29;1903;-57
2022/07/13 02:23:40;;;;;;;;;;;;;;;16.07;57.03;100930.88;4944020;29;1109;-58
2022/07/13 02:26:06;;;;;;;;;;;;;;;16.31;57.26;100957.84;4961087;29;1216;-58
2022/07/13 02:28:31;;;;;;;;;;;;;;;17.50;57.18;100963.66;4960828;29;1019;-59
2022/07/13 02:30:57;;;;;;;;;;;;;;;16.80;58.42;100945.69;4957949;28;1106;-60
2022/07/13 02:33:23;;;;;;;;;;;;;;;16.56;58.00;100945.34;4963411;28;1121;-60
2022/07/13 02:35:49;;;;;;;;;;;;;;;16.47;57.72;100946.97;4959220;29;1225;-58
2022/07/13 02:38:14;;;;;;;;;;;;;;;16.40;57.31;100937.06;4960519;29;1089;-58
2022/07/13 02:40:40;;;;;;;;;;;;;;;16.30;57.16;100941.66;4960336;29;1910;-58
2022/07/13 02:43:05;;;;;;;;;;;;;;;16.25;57.23;100942.47;4959528;29;1069;-58
2022/07/13 02:45:31;;;;;;;;;;;;;;;16.22;56.92;100940.25;4946683;28;1515;-59
2022/07/13 02:47:56;;;;;;;;;;;;;;;16.16;57.02;100938.56;4960219;29;1089;-59
2022/07/13 02:50:22;;;;;;;;;;;;;;;16.13;56.80;100936.38;4947995;29;1333;-59
2022/07/13 02:52:47;;;;;;;;;;;;;;;16.05;56.97;100934.97;4960353;29;991;-59
2022/07/13 02:55:13;;;;;;;;;;;;;;;16.07;56.67;100932.78;4960324;29;1145;-59
2022/07/13 02:57:39;;;;;;;;;;;;;;;16.81;57.86;100939.09;4948632;28;1561;-59
2022/07/13 03:00:08;;;;;;;;;;;;;;;17.05;57.60;100930.38;4942827;29;1969;-59
2022/07/13 03:02:33;;;;;;;;;;;;;;;16.55;58.27;100928.06;4945903;28;1220;-59
2022/07/13 03:04:59;;;;;;;;;;;;;;;16.39;57.96;100932.66;4927678;29;1329;-59
2022/07/13 03:07:25;;;;;;;;;;;;;;;16.34;57.55;100935.38;4942907;28;1893;-58
2022/07/13 03:09:52;;;;;;;;;;;;;;;16.27;57.26;100940.31;4948435;28;1297;-59
2022/07/13 03:12:17;;;;;;;;;;;;;;;16.25;56.94;100942.47;4964385;28;1109;-58
2022/07/13 03:14:43;;;;;;;;;;;;;;;16.12;56.91;100932.81;4950160;28;1165;-59
2022/07/13 03:17:09;;;;;;;;;;;;;;;16.14;56.80;100932.53;4945868;29;1410;-58
2022/07/13 03:19:35;;;;;;;;;;;;;;;16.05;56.67;100933.03;4962235;28;1983;-64
2022/07/13 03:22:02;;;;;;;;;;;;;;;16.34;57.21;100932.66;4943883;29;1189;-59
2022/07/13 03:24:28;;;;;;;;;;;;;;;17.37;57.21;100927.38;4943860;29;1173;-61
2022/07/13 03:26:53;;;;;;;;;;;;;;;16.74;58.03;100936.59;4958694;28;1619;-63
2022/07/13 03:29:19;;;;;;;;;;;;;;;16.51;57.89;100932.44;4949127;29;1330;-62
2022/07/13 03:31:44;;;;;;;;;;;;;;;16.37;57.85;100928.53;4944565;29;1276;-60
2022/07/13 03:34:11;;;;;;;;;;;;;;;16.31;57.39;100918.63;4935575;28;1336;-60
2022/07/13 03:36:36;;;;;;;;;;;;;;;16.25;57.34;100915.84;4943058;29;1381;-60
2022/07/13 03:39:04;;;;;;;;;;;;;;;16.19;57.06;100921.59;4942456;29;1224;-60
2022/07/13 03:41:31;;;;;;;;;;;;;;;16.13;57.13;100920.75;4942060;29;1914;-60
2022/07/13 03:43:56;;;;;;;;;;;;;;;16.11;56.71;100917.44;4942032;29;1066;-56
2022/07/13 03:46:22;;;;;;;;;;;;;;;16.07;57.05;100916.31;4958156;29;1129;-60
2022/07/13 03:48:47;;;;;;;;;;;;;;;16.52;57.58;100906.63;4965896;28;1298;-63
2022/07/13 03:51:13;;;;;;;;;;;;;;;17.54;57.34;100912.53;4943643;29;1220;-58
2022/07/13 03:53:38;;;;;;;;;;;;;;;16.93;58.12;100914.97;4958987;29;1054;-62
2022/07/13 03:56:05;;;;;;;;;;;;;;;16.63;58.29;100918.44;4961119;28;1473;-65
2022/07/13 03:58:30;;;;;;;;;;;;;;;16.52;57.63;100917.63;4960585;28;1019;-66
2022/07/13 04:00:56;;;;;;;;;;;;;;;16.43;57.37;100920.03;4958745;29;1911;-65
2022/07/13 04:03:22;;;;;;;;;;;;;;;16.33;57.54;100925.50;4941560;29;1042;-66
2022/07/13 04:05:48;;;;;;;;;;;;;;;16.31;57.11;100921.38;4941667;28;1355;-62
2022/07/13 04:08:13;;;;;;;;;;;;;;;16.24;57.20;100916.97;4954289;28;2596;-66
2022/07/13 04:10:39;;;;;;;;;;;;;;;16.22;57.02;100912.84;4957089;29;1848;-60
2022/07/13 04:13:04;;;;;;;;;;;;;;;16.15;57.08;100921.28;4961329;28;2283;-63
2022/07/13 04:15:30;;;;;;;;;;;;;;;16.14;56.61;100916.09;4958653;28;2031;-67
2022/07/13 04:17:55;;;;;;;;;;;;;;;16.05;56.80;100924.81;4964017;28;1939;-60
2022/07/13 04:20:21;;;;;;;;;;;;;;;16.16;56.54;100930.34;4943552;29;1984;-63
2022/07/13 04:22:47;;;;;;;;;;;;;;;16.04;56.73;100933.31;4943824;29;2150;-65
2022/07/13 04:25:13;;;;;;;;;;;;;;;16.74;57.56;100944.84;4943008;29;1196;-62
2022/07/13 04:27:40;;;;;;;;;;;;;;;17.29;57.62;100952.66;4941265;29;1133;-61
2022/07/13 04:30:05;;;;;;;;;;;;;;;16.72;58.12;100949.78;4943324;28;1372;-61
2022/07/13 04:35:52;;;;;;;;;;;;;;;16.39;57.75;100945.56;4952941;29;963;-58
2022/07/13 04:38:18;;;;;;;;;;;;;;;16.35;57.22;100950.75;4941996;29;1334;-59
2022/07/13 04:40:45;;;;;;;;;;;;;;;16.29;57.20;100956.50;4958430;28;1911;-55
2022/07/13 04:43:11;;;;;;;;;;;;;;;16.24;57.23;100963.59;4940278;29;1168;-56
2022/07/13 04:45:37;;;;;;;;;;;;;;;16.19;56.99;100954.53;4952329;28;1197;-53
2022/07/13 04:48:03;;;;;;;;;;;;;;;16.28;57.27;100955.66;4956365;29;1102;-55
2022/07/13 04:50:31;;;;;;;;;;;;;;;16.33;57.17;100947.44;4937525;29;1202;-54
2022/07/13 04:53:46;;;;;;;;;;;;;;;16.30;57.37;100953.47;5033305;27;1395132;-55
2022/07/13 04:56:12;;;;;;;;;;;;;;;16.34;57.44;100946.38;5052926;28;1363;-56
2022/07/13 04:58:38;;;;;;;;;;;;;;;16.31;57.36;100946.88;5058857;28;1230;-58
2022/07/13 05:01:06;;;;;;;;;;;;;;;16.23;57.25;100941.94;5058170;28;1151;-57
2022/07/13 05:03:32;;;;;;;;;;;;;;;16.16;57.22;100953.13;5074434;28;993;-62
2022/07/13 05:05:57;;;;;;;;;;;;;;;16.13;57.22;100950.09;5054810;28;1072;-63
2022/07/13 05:08:23;;;;;;;;;;;;;;;16.09;57.40;100958.03;5054301;28;1049;-60
2022/07/13 05:10:49;;;;;;;;;;;;;;;16.07;57.08;100955.56;5056426;28;1330;-60
2022/07/13 05:13:14;;;;;;;;;;;;;;;16.03;57.09;100965.41;5054651;28;1973;-59
2022/07/13 05:15:41;;;;;;;;;;;;;;;16.02;57.23;100961.00;5061360;28;1347;-63
2022/07/13 05:18:06;;;;;;;;;;;;;;;16.75;58.11;100964.91;5055187;28;1234;-59
2022/07/13 05:20:32;;;;;;;;;;;;;;;17.10;58.45;100977.91;5055472;28;1331;-60
2022/07/13 05:22:58;;;;;;;;;;;;;;;16.64;58.55;100975.03;5051978;28;2462;-68
2022/07/13 05:29:04;;;;;;;;;;;;;;;16.32;58.00;100966.94;5072703;28;922;-66
2022/07/13 05:31:31;;;;;;;;;;;;;;;16.26;57.80;100974.31;5054949;28;1909;-66
2022/07/13 05:33:58;;;;;;;;;;;;;;;16.21;57.81;100975.09;5052595;28;1127;-60
2022/07/13 05:36:29;;;;;;;;;;;;;;;16.19;57.58;100974.53;5058960;28;1330;-62
2022/07/13 05:38:55;;;;;;;;;;;;;;;16.16;57.49;100977.81;5087497;28;1329;-61
2022/07/13 05:41:21;;;;;;;;;;;;;;;16.13;57.17;100975.63;5054779;28;1723;-63
2022/07/13 05:43:47;;;;;;;;;;;;;;;16.13;57.15;100974.78;5065343;28;1147;-63
2022/07/13 05:46:13;;;;;;;;;;;;;;;16.08;57.00;100967.34;5061782;28;1330;-62
2022/07/13 05:48:39;;;;;;;;;;;;;;;16.06;56.99;100969.53;5054627;28;1128;-62
2022/07/13 05:51:05;;;;;;;;;;;;;;;17.04;57.51;100968.03;5052682;28;2703;-62
2022/07/13 05:53:32;;;;;;;;;;;;;;;16.23;60.42;100966.63;5053571;28;1902;-60
2022/07/13 05:55:58;;;;;;;;;;;;;;;17.52;56.53;100977.97;5054720;28;1318;-61
2022/07/13 05:58:23;;;;;;;;;;;;;;;16.95;57.24;100964.16;5071584;28;825;-61
2022/07/13 06:00:48;;;;;;;;;;;;;;;18.60;54.19;100956.53;5071910;28;1057;-61
2022/07/13 06:03:14;;;;;;;;;;;;;;;15.00;62.46;100961.81;5070113;28;1120;-61
2022/07/13 06:05:39;;;;;;;;;;;;;;;17.37;58.55;100965.84;5058959;28;1041;-60
2022/07/13 06:08:05;;;;;;;;;;;;;;;17.93;55.93;100961.44;5059161;28;1234;-60
2022/07/13 06:10:30;;;;;;;;;;;;;;;15.20;62.89;100963.91;5057852;28;1470;-60
2022/07/13 06:12:56;;;;;;;;;;;;;;;18.29;55.96;100958.59;5059858;28;1901;-61
2022/07/13 06:15:21;;;;;;;;;;;;;;;15.45;61.71;100965.22;5064640;28;1156;-61
2022/07/13 06:17:46;;;;;;;;;;;;;;;17.35;59.20;100965.31;5068872;28;1357;-60
2022/07/13 06:20:12;;;;;;;;;;;;;;;19.13;53.42;100961.50;5073798;28;1301;-58
2022/07/13 06:22:37;;;;;;;;;;;;;;;14.97;64.01;100961.47;5068539;28;2502;-60
2022/07/13 06:25:03;;;;;;;;;;;;;;;18.12;57.19;100961.69;5073534;28;1230;-60
2022/07/13 06:27:28;;;;;;;;;;;;;;;16.30;60.32;100958.97;5069772;28;1278;-61
2022/07/13 06:29:54;;;;;;;;;;;;;;;16.84;61.10;100959.69;5058016;28;1155;-60
2022/07/13 06:32:19;;;;;;;;;;;;;;;19.22;54.15;100955.38;5058388;28;1906;-62
2022/07/13 06:34:45;;;;;;;;;;;;;;;14.92;63.23;100948.56;5058811;28;802;-64
2022/07/13 06:37:11;;;;;;;;;;;;;;;18.00;57.84;100950.16;5058155;28;1100;-65
2022/07/13 06:39:36;;;;;;;;;;;;;;;17.22;58.52;100946.59;5051920;28;1080;-63
2022/07/13 06:42:01;;;;;;;;;;;;;;;16.04;61.62;100950.59;5066159;28;985;-64
2022/07/13 06:44:27;;;;;;;;;;;;;;;18.79;55.64;100945.69;5062119;28;1029;-62
2022/07/13 06:46:52;;;;;;;;;;;;;;;15.31;62.86;100953.06;5040972;28;1061;-61
2022/07/13 06:49:18;;;;;;;;;;;;;;;16.60;57.10;100954.69;5059424;28;1056;-61
2022/07/13 06:51:43;;;;;;;;;;;;;;;16.90;54.50;100956.72;5055806;28;2401;-63
2022/07/13 06:54:09;;;;;;;;;;;;;;;17.90;55.93;100945.47;5058254;28;1148;-63
2022/07/13 06:56:34;;;;;;;;;;;;;;;17.40;54.53;100957.06;5058578;28;985;-63
2022/07/13 06:59:00;;;;;;;;;;;;;;;17.26;53.17;100948.56;5060581;28;1103;-61
2022/07/13 07:01:26;;;;;;;;;;;;;;;17.21;52.03;100943.03;5060434;28;989;-61
2022/07/13 07:03:52;;;;;;;;;;;;;;;17.16;51.58;100947.72;5059152;28;1001;-61
2022/07/13 07:06:17;;;;;;;;;;;;;;;17.10;50.98;100947.69;5060586;28;1003;-62
2022/07/13 07:08:42;;;;;;;;;;;;;;;17.60;52.32;100953.50;5058063;28;1018;-61
2022/07/13 07:11:08;;;;;;;;;;;;;;;17.76;53.30;100945.22;5059711;28;1198;-62
2022/07/13 07:13:33;;;;;;;;;;;;;;;17.48;52.59;100946.63;5057702;28;1914;-60
2022/07/13 07:16:00;;;;;;;;;;;;;;;17.38;51.50;100951.00;5056628;28;1128;-59
2022/07/13 07:18:25;;;;;;;;;;;;;;;17.23;50.89;100945.50;5057206;28;1287;-59
2022/07/13 07:20:51;;;;;;;;;;;;;;;17.23;50.39;100948.25;5060466;28;1076;-55
2022/07/13 07:23:16;;;;;;;;;;;;;;;17.21;49.92;100942.22;5062860;28;2933;-59
2022/07/13 07:25:42;;;;;;;;;;;;;;;17.09;49.94;100943.28;5057646;28;1096;-59
2022/07/13 07:28:09;;;;;;;;;;;;;;;18.18;51.63;100951.50;5057582;28;1080;-59
2022/07/13 07:30:35;;;;;;;;;;;;;;;14.52;61.74;100952.47;5057754;28;1096;-62
2022/07/13 07:33:00;;;;;;;;;;;;;;;18.23;54.88;100954.19;5057239;28;1886;-62
2022/07/13 07:35:26;;;;;;;;;;;;;;;16.46;58.96;100953.53;5057908;28;1202;-62
2022/07/13 07:37:51;;;;;;;;;;;;;;;15.79;58.31;100958.63;5057275;28;1375;-60
2022/07/13 07:40:16;;;;;;;;;;;;;;;18.17;55.96;100958.91;5058619;28;1366;-61
2022/07/13 07:42:42;;;;;;;;;;;;;;;17.49;54.86;100951.00;5066023;28;1168;-61
2022/07/13 07:45:08;;;;;;;;;;;;;;;17.42;52.92;100963.13;5057232;28;981;-60
2022/07/13 07:47:33;;;;;;;;;;;;;;;17.30;51.86;100959.81;5059550;28;1069;-60
2022/07/13 07:49:59;;;;;;;;;;;;;;;17.28;51.22;100973.00;5058710;28;989;-63
2022/07/13 07:52:24;;;;;;;;;;;;;;;17.19;50.76;100966.38;5059630;28;1925;-58
2022/07/13 07:54:50;;;;;;;;;;;;;;;18.01;52.24;100955.38;5054291;28;1147;-62
2022/07/13 07:57:15;;;;;;;;;;;;;;;17.57;52.01;100958.69;5057433;28;1092;-62
2022/07/13 07:59:41;;;;;;;;;;;;;;;17.42;51.04;100965.03;5056198;28;987;-59
2022/07/13 08:02:07;;;;;;;;;;;;;;;17.37;50.36;100965.84;5056880;28;1052;-60
2022/07/13 08:04:32;;;;;;;;;;;;;;;17.32;50.28;100967.78;5056310;28;1076;-61
2022/07/13 08:06:58;;;;;;;;;;;;;;;17.83;51.32;100965.00;5054525;28;1036;-60
2022/07/13 08:09:23;;;;;;;;;;;;;;;17.46;50.92;100974.41;5056985;28;1143;-61
2022/07/13 08:11:48;;;;;;;;;;;;;;;17.44;50.11;100971.06;5056425;28;1910;-60
2022/07/13 08:14:14;;;;;;;;;;;;;;;17.33;49.75;100966.69;5038024;28;1126;-58
2022/07/13 08:16:39;;;;;;;;;;;;;;;17.35;49.06;100973.56;5057627;28;1116;-58
2022/07/13 08:19:05;;;;;;;;;;;;;;;17.27;48.99;100965.84;5057044;28;1040;-58
2022/07/13 08:21:30;;;;;;;;;;;;;;;17.19;48.97;100974.63;5052947;28;2511;-59
2022/07/13 08:23:56;;;;;;;;;;;;;;;18.27;50.20;100974.56;5060145;28;911;-59
2022/07/13 08:26:22;;;;;;;;;;;;;;;14.70;58.72;100976.81;5056066;28;1020;-56
2022/07/13 08:28:48;;;;;;;;;;;;;;;18.11;54.02;100973.78;5056566;28;1140;-59
2022/07/13 08:31:14;;;;;;;;;;;;;;;17.51;55.77;100976.31;5061656;28;974;-61
2022/07/13 08:39:07;;;;;;;;;;;;;;;15.04;63.64;100971.16;5057628;28;1056;-62
2022/07/13 08:41:33;;;;;;;;;;;;;;;16.87;55.02;100975.63;5056085;28;1056;-60
2022/07/13 08:43:59;;;;;;;;;;;;;;;17.12;52.45;100974.91;5054054;28;1291;-59
2022/07/13 08:46:24;;;;;;;;;;;;;;;17.14;51.35;100975.47;5056137;28;1032;-59
2022/07/13 08:48:50;;;;;;;;;;;;;;;17.15;50.80;100963.34;5055593;28;1089;-63
2022/07/13 08:51:19;;;;;;;;;;;;;;;17.45;51.34;100970.00;5041605;28;2602;-59
2022/07/13 08:53:44;;;;;;;;;;;;;;;17.62;52.04;100967.78;5057512;28;1910;-63
2022/07/13 08:56:10;;;;;;;;;;;;;;;17.43;51.43;100962.03;5054853;28;1314;-60
2022/07/13 08:58:36;;;;;;;;;;;;;;;17.33;50.38;100962.00;5060034;28;982;-61
2022/07/13 09:01:05;;;;;;;;;;;;;;;17.35;49.96;100957.06;5061677;28;1064;-62
2022/07/13 09:03:34;;;;;;;;;;;;;;;17.34;49.50;100966.41;5057116;28;977;-63
2022/07/13 09:05:59;;;;;;;;;;;;;;;17.22;49.48;100961.19;5058975;28;1155;-63
2022/07/13 09:08:25;;;;;;;;;;;;;;;17.19;49.06;100949.91;5059745;28;993;-65
2022/07/13 09:10:56;;;;;;;;;;;;;;;17.11;48.71;100954.03;5056903;28;1135;-65
2022/07/13 09:13:41;;;;;;;;;;;;;;;18.32;50.07;100958.03;5058179;28;1909;-64
2022/07/13 09:16:37;;;;;;;;;;;;;;;14.97;60.34;100959.59;5032207;28;982;-64
2022/07/13 09:19:03;;;;;;;;;;;;;;;18.87;53.35;100958.06;5053125;28;1215;-60
2022/07/13 09:21:30;;;;;;;;;;;;;;;15.72;60.06;100959.69;5055752;28;2135;-59
2022/07/13 09:23:55;;;;;;;;;;;;;;;17.37;57.59;100957.59;5055661;28;1302;-61
2022/07/13 09:26:24;;;;;;;;;;;;;;;18.63;54.41;100952.38;5065515;28;1305;-61
2022/07/13 09:28:50;;;;;;;;;;;;;;;15.17;62.15;100941.72;5055955;28;1451;-62
2022/07/13 09:31:16;;;;;;;;;;;;;;;18.47;56.28;100932.38;5056210;28;1190;-63
2022/07/13 09:33:43;;;;;;;;;;;;;;;16.08;60.68;100937.19;5055770;28;1987;-60
2022/07/13 09:36:09;;;;;;;;;;;;;;;16.36;57.68;100935.94;5058785;28;851;-62
2022/07/13 09:38:36;;;;;;;;;;;;;;;17.06;53.31;100932.84;5056247;28;1183;-62
2022/07/13 09:41:15;;;;;;;;;;;;;;;17.13;51.94;100931.78;5060854;28;981;-60
2022/07/13 09:46:57;;;;;;;;;;;;;;;17.13;50.41;100932.59;5073561;28;1334;-60
2022/07/13 09:49:29;;;;;;;;;;;;;;;17.17;49.77;100938.38;5068476;28;1304;-61
2022/07/13 09:51:58;;;;;;;;;;;;;;;17.19;49.34;100933.41;5070843;28;2319;-61
2022/07/13 09:54:30;;;;;;;;;;;;;;;17.15;49.11;100924.06;5064779;28;1172;-63
2022/07/13 09:56:56;;;;;;;;;;;;;;;18.17;50.94;100933.31;5061999;28;981;-60
2022/07/13 09:59:21;;;;;;;;;;;;;;;14.78;60.56;100923.53;5061798;28;1147;-60
2022/07/13 10:01:47;;;;;;;;;;;;;;;18.21;55.23;100926.16;5034875;28;1084;-63
2022/07/13 10:04:12;;;;;;;;;;;;;;;17.27;56.92;100919.13;5041287;28;1168;-62
2022/07/13 10:06:38;;;;;;;;;;;;;;;16.17;60.55;100918.28;5041384;28;1444;-65
2022/07/13 10:09:04;;;;;;;;;;;;;;;18.98;54.72;100915.59;5059296;28;1041;-61
2022/07/13 10:11:29;;;;;;;;;;;;;;;15.45;61.86;100909.59;5058784;28;1006;-61
2022/07/13 10:13:55;;;;;;;;;;;;;;;17.73;58.30;100913.59;5059095;28;1895;-64
2022/07/13 10:16:20;;;;;;;;;;;;;;;18.31;55.93;100904.06;5041337;28;1191;-64
2022/07/13 10:18:46;;;;;;;;;;;;;;;15.70;63.00;100915.25;5057302;28;1063;-65
2022/07/13 10:21:30;;;;;;;;;;;;;;;18.90;56.07;100901.56;5035223;28;2591;-64
2022/07/13 10:23:55;;;;;;;;;;;;;;;15.63;62.26;100911.94;5060171;28;839;-64
2022/07/13 10:26:21;;;;;;;;;;;;;;;16.66;56.70;100909.69;5058915;28;1081;-63
2022/07/13 10:29:06;;;;;;;;;;;;;;;17.21;53.56;100906.50;5058575;28;1094;-65
2022/07/13 10:31:33;;;;;;;;;;;;;;;17.28;51.97;100896.88;5059410;28;1144;-61
2022/07/13 10:33:59;;;;;;;;;;;;;;;17.28;51.27;100907.88;5056365;28;1041;-62
2022/07/13 10:36:43;;;;;;;;;;;;;;;17.30;50.40;100909.53;5057426;28;1217;-61
2022/07/13 10:39:12;;;;;;;;;;;;;;;17.24;49.96;100895.78;5064064;28;1124;-61
2022/07/13 10:41:54;;;;;;;;;;;;;;;17.23;49.77;100896.03;5056773;28;1169;-60
2022/07/13 10:44:29;;;;;;;;;;;;;;;17.29;49.33;100886.69;5062859;28;1175;-60
2022/07/13 10:46:55;;;;;;;;;;;;;;;17.24;49.11;100893.03;5056424;28;1144;-60
2022/07/13 10:49:33;;;;;;;;;;;;;;;17.30;48.70;100893.84;5056975;28;969;-60
2022/07/13 10:52:17;;;;;;;;;;;;;;;17.69;50.22;100889.69;5061942;28;2542;-60
2022/07/13 10:55:02;;;;;;;;;;;;;;;17.69;50.94;100885.00;5058324;28;962;-57
2022/07/13 10:57:27;;;;;;;;;;;;;;;17.44;50.22;100888.59;5054031;28;993;-61
2022/07/13 10:59:53;;;;;;;;;;;;;;;17.46;49.64;100886.44;5062600;28;870;-60
2022/07/13 11:02:37;;;;;;;;;;;;;;;17.45;49.14;100882.84;5040353;28;1607;-60
2022/07/13 11:05:03;;;;;;;;;;;;;;;17.35;48.73;100877.34;5040257;28;982;-60
2022/07/13 11:07:39;;;;;;;;;;;;;;;17.35;48.55;100884.75;5056222;28;1130;-59
2022/07/13 11:10:16;;;;;;;;;;;;;;;17.33;48.41;100875.97;5058391;28;1001;-59
2022/07/13 11:12:54;;;;;;;;;;;;;;;17.24;48.31;100875.72;5060634;28;1914;-59
2022/07/13 11:15:20;;;;;;;;;;;;;;;17.25;48.31;100871.84;5052463;28;1001;-59
2022/07/13 11:17:52;;;;;;;;;;;;;;;17.20;47.89;100872.69;5056549;28;1170;-59
2022/07/13 11:20:18;;;;;;;;;;;;;;;17.20;47.89;100869.13;5030746;28;1320;-58
2022/07/13 11:25:46;;;;;;;;;;;;;;;16.92;54.65;100868.56;5067886;28;1009;-60
2022/07/13 11:28:20;;;;;;;;;;;;;;;19.03;52.21;100856.00;5065284;28;1220;-61
2022/07/13 11:30:49;;;;;;;;;;;;;;;14.93;61.77;100867.25;5058440;28;1017;-59
2022/07/13 11:33:14;;;;;;;;;;;;;;;18.46;54.59;100870.97;5057426;28;1917;-60
2022/07/13 11:35:46;;;;;;;;;;;;;;;16.84;58.16;100880.88;5039349;28;1069;-60
2022/07/13 11:38:15;;;;;;;;;;;;;;;16.28;57.51;100870.59;5051076;28;1391;-60
2022/07/13 11:40:41;;;;;;;;;;;;;;;17.22;52.49;100883.41;5050930;28;1061;-61
2022/07/13 11:43:07;;;;;;;;;;;;;;;17.22;51.14;100869.66;5057375;28;959;-61
2022/07/13 11:45:32;;;;;;;;;;;;;;;17.27;50.51;100862.22;5062293;28;1095;-61
2022/07/13 11:48:01;;;;;;;;;;;;;;;17.18;49.90;100863.06;5060263;28;1072;-61
2022/07/13 11:50:39;;;;;;;;;;;;;;;17.22;49.67;100864.16;5053468;28;1164;-61
2022/07/13 11:53:05;;;;;;;;;;;;;;;18.20;50.86;100856.53;5058604;28;2682;-60
2022/07/13 11:55:30;;;;;;;;;;;;;;;14.73;60.04;100859.69;5057030;28;1229;-61
2022/07/13 11:57:58;;;;;;;;;;;;;;;18.22;54.56;100848.81;5057107;28;1068;-59
2022/07/13 12:00:23;;;;;;;;;;;;;;;17.20;57.09;100849.88;5052546;28;1489;-60
2022/07/13 12:06:15;;;;;;;;;;;;;;;18.39;55.21;100850.38;5057586;28;969;-60
2022/07/13 12:08:41;;;;;;;;;;;;;;;15.58;62.88;100851.59;5071289;28;1183;-59
2022/07/13 12:11:07;;;;;;;;;;;;;;;18.90;55.31;100847.31;5072624;28;1191;-60
2022/07/13 12:13:33;;;;;;;;;;;;;;;15.97;61.55;100848.53;5071458;28;1914;-60
2022/07/13 12:15:58;;;;;;;;;;;;;;;17.21;59.37;100854.28;5059814;28;1283;-59
2022/07/13 12:18:24;;;;;;;;;;;;;;;18.84;55.10;100844.84;5037993;28;1455;-59
2022/07/13 12:20:49;;;;;;;;;;;;;;;15.05;63.79;100846.84;5042988;28;1152;-59
2022/07/13 12:23:15;;;;;;;;;;;;;;;16.96;55.03;100847.69;5041605;28;2911;-60
2022/07/13 12:25:40;;;;;;;;;;;;;;;17.27;52.53;100831.19;5057752;28;1072;-61
2022/07/13 12:28:08;;;;;;;;;;;;;;;17.27;51.65;100836.69;5058737;28;1021;-60
2022/07/13 12:30:34;;;;;;;;;;;;;;;17.33;51.08;100835.56;5057113;28;1017;-60
2022/07/13 12:33:01;;;;;;;;;;;;;;;17.26;50.45;100829.53;5056116;28;1910;-60
2022/07/13 12:35:27;;;;;;;;;;;;;;;17.31;50.09;100834.22;5056453;28;953;-60
2022/07/13 12:37:52;;;;;;;;;;;;;;;17.23;49.69;100835.59;5061652;28;1038;-60
2022/07/13 12:40:41;;;;;;;;;;;;;;;17.22;49.57;100828.44;5061402;28;981;-60
2022/07/13 12:43:26;;;;;;;;;;;;;;;17.27;49.03;100817.44;5050248;28;1604;-60
2022/07/13 12:45:51;;;;;;;;;;;;;;;17.30;49.02;100805.91;5053494;28;1044;-62
2022/07/13 12:48:17;;;;;;;;;;;;;;;17.24;48.93;100821.56;5037689;28;1053;-65
2022/07/13 12:50:53;;;;;;;;;;;;;;;17.21;48.83;100780.09;5056152;28;1202;-61
2022/07/13 12:53:18;;;;;;;;;;;;;;;17.26;48.50;100819.38;5050586;28;1993;-61
2022/07/13 12:55:54;;;;;;;;;;;;;;;18.18;50.22;100820.19;5055829;28;1085;-62
2022/07/13 12:58:19;;;;;;;;;;;;;;;15.99;58.56;100816.19;5056311;28;1001;-64
2022/07/13 13:00:44;;;;;;;;;;;;;;;18.86;53.44;100818.66;5057710;28;1052;-63
2022/07/13 13:03:10;;;;;;;;;;;;;;;16.00;60.17;100817.81;5062026;28;1045;-63
2022/07/13 13:05:36;;;;;;;;;;;;;;;16.49;56.57;100811.09;5056683;28;1437;-65
2022/07/13 13:08:01;;;;;;;;;;;;;;;17.20;52.40;100800.44;5056330;28;1017;-64